Time;durP1;ratioP1;P1;durP2;ratioP2;P2;SDS_P1;SDS_P2;PMS_P1;PMS_P2;Temp;Humidity;BMP_temperature;BMP_pressure;BME280_temperature;BME280_humidity;BME280_pressure;Samples;Min_cycle;Max_cycle;Signal;HPM_P1;HPM_P2
2021/07/25 00:00:12;;;;;;;20.75;12.63;;;;;;;14.50;64.55;99348.69;5051038;28;20049;-62
2021/07/25 00:02:38;;;;;;;18.80;11.70;;;;;;;14.51;64.95;99352.97;5051360;28;20053;-61
2021/07/25 00:05:06;;;;;;;21.88;11.70;;;;;;;14.47;65.00;99344.72;5051049;28;20064;-61
2021/07/25 00:07:32;;;;;;;17.83;10.80;;;;;;;14.46;64.69;99351.09;5051289;28;20041;-61
2021/07/25 00:09:58;;;;;;;16.52;11.50;;;;;;;14.54;64.61;99358.59;5051475;28;20091;-62
2021/07/25 00:12:24;;;;;;;17.02;9.00;;;;;;;14.61;63.88;99357.53;5051373;28;20502;-62
2021/07/25 00:14:50;;;;;;;11.40;7.03;;;;;;;14.72;63.03;99353.84;5051486;28;20479;-62
2021/07/25 00:17:30;;;;;;;16.20;11.00;;;;;;;14.82;63.94;99361.84;5068585;28;20944;-61
2021/07/25 00:19:55;;;;;;;17.17;11.13;;;;;;;14.80;64.38;99366.66;5068628;28;20044;-62
2021/07/25 00:22:21;;;;;;;10.82;6.38;;;;;;;14.74;60.97;99363.19;5069066;28;20049;-62
2021/07/25 00:25:07;;;;;;;9.75;6.35;;;;;;;14.77;59.94;99364.53;5068860;28;20459;-62
2021/07/25 00:27:33;;;;;;;8.00;5.22;;;;;;;14.81;58.84;99362.13;5068571;28;20362;-61
2021/07/25 00:29:59;;;;;;;9.40;5.20;;;;;;;14.84;58.02;99362.38;5068344;28;20556;-62
2021/07/25 00:32:25;;;;;;;7.82;4.75;;;;;;;14.85;57.48;99355.16;5067475;28;20567;-62
2021/07/25 00:34:52;;;;;;;7.03;4.88;;;;;;;14.93;57.36;99360.78;5068647;28;20032;-63
2021/07/25 00:37:18;;;;;;;6.10;5.00;;;;;;;14.99;56.25;99362.38;5068643;28;20083;-62
2021/07/25 00:39:44;;;;;;;8.98;4.82;;;;;;;15.05;56.14;99362.38;5068580;28;20072;-63
2021/07/25 00:42:10;;;;;;;8.70;4.80;;;;;;;15.11;56.12;99366.66;5068596;28;20399;-61
2021/07/25 00:44:35;;;;;;;7.40;4.57;;;;;;;15.15;55.87;99362.41;5068183;28;20091;-63
2021/07/25 00:47:02;;;;;;;10.32;5.30;;;;;;;15.18;57.60;99364.53;5068495;28;20136;-62
2021/07/25 00:49:28;;;;;;;9.65;5.07;;;;;;;15.20;56.76;99359.72;5068139;28;20067;-62
2021/07/25 00:51:54;;;;;;;6.18;4.78;;;;;;;15.21;55.86;99364.00;5068208;28;20083;-62
2021/07/25 00:54:21;;;;;;;7.20;4.88;;;;;;;15.22;56.50;99361.03;5068290;28;20044;-63
2021/07/25 00:56:47;;;;;;;8.43;5.80;;;;;;;15.27;55.94;99351.44;5068127;28;20059;-62
2021/07/25 00:59:13;;;;;;;9.82;4.88;;;;;;;15.30;55.78;99362.38;5067903;28;20131;-64
2021/07/25 01:01:39;;;;;;;7.43;4.78;;;;;;;15.33;55.98;99359.19;5067763;28;20075;-62
2021/07/25 01:04:08;;;;;;;6.65;4.60;;;;;;;15.36;55.86;99357.84;5067811;28;20053;-63
2021/07/25 01:07:08;;;;;;;8.77;5.30;;;;;;;15.39;55.72;99362.63;5067941;28;20102;-62
2021/07/25 01:09:59;;;;;;;7.28;5.15;;;;;;;15.41;55.29;99366.66;5068045;28;20049;-62
2021/07/25 01:12:33;;;;;;;7.32;5.82;;;;;;;15.43;55.49;99363.69;5064961;28;20052;-62
2021/07/25 01:15:00;;;;;;;11.93;6.57;;;;;;;15.43;55.75;99366.38;5066465;28;20040;-63
2021/07/25 01:17:28;;;;;;;9.00;5.75;;;;;;;15.40;55.87;99350.88;5066008;28;20080;-62
2021/07/25 01:19:58;;;;;;;6.90;5.65;;;;;;;15.45;55.34;99373.03;5067682;28;20072;-62
2021/07/25 01:22:25;;;;;;;10.85;6.93;;;;;;;15.45;56.20;99362.34;5067582;28;20144;-64
2021/07/25 01:24:50;;;;;;;11.73;6.03;;;;;;;15.47;56.68;99363.94;5066166;28;20053;-63
2021/07/25 01:27:48;;;;;;;12.13;6.40;;;;;;;15.46;56.93;99360.47;5063146;28;20123;-62
2021/07/25 01:30:18;;;;;;;14.73;6.28;;;;;;;15.45;56.28;99367.69;5036654;28;20040;-62
2021/07/25 01:32:45;;;;;;;8.68;6.47;;;;;;;15.45;56.56;99372.25;5053946;28;20044;-61
2021/07/25 01:35:12;;;;;;;10.43;7.72;;;;;;;15.44;56.90;99376.78;5052723;28;20098;-62
2021/07/25 01:37:38;;;;;;;13.23;8.45;;;;;;;15.42;56.68;99378.13;5054180;28;20132;-62
2021/07/25 01:40:20;;;;;;;11.77;7.38;;;;;;;15.38;56.89;99377.03;5036285;28;20041;-62
2021/07/25 01:42:46;;;;;;;13.95;8.57;;;;;;;15.41;57.00;99374.66;5053985;28;20041;-62
2021/07/25 01:45:13;;;;;;;11.80;7.55;;;;;;;15.49;56.37;99381.31;5053989;28;20045;-62
2021/07/25 01:47:39;;;;;;;10.63;6.78;;;;;;;15.51;56.23;99381.84;5052727;28;20411;-62
2021/07/25 01:50:05;;;;;;;11.05;6.85;;;;;;;15.52;55.63;99372.75;5053945;28;20056;-62
2021/07/25 01:52:32;;;;;;;11.90;7.18;;;;;;;15.53;55.88;99378.91;5052410;28;20041;-62
2021/07/25 01:54:57;;;;;;;12.40;8.18;;;;;;;15.50;56.47;99382.94;5053916;28;20148;-62
2021/07/25 01:57:23;;;;;;;20.50;9.20;;;;;;;15.47;57.96;99388.81;5053571;28;20484;-62
2021/07/25 01:59:49;;;;;;;16.23;9.13;;;;;;;15.41;58.28;99389.88;5053411;28;20132;-62
2021/07/25 02:02:15;;;;;;;16.15;10.07;;;;;;;15.32;58.27;99381.59;5053772;28;20040;-62
2021/07/25 02:04:41;;;;;;;16.98;10.25;;;;;;;15.36;58.50;99385.34;5053686;28;20452;-63
2021/07/25 02:07:07;;;;;;;14.65;8.27;;;;;;;15.36;57.53;99390.69;5053739;28;20045;-63
2021/07/25 02:09:36;;;;;;;11.65;6.40;;;;;;;15.39;56.80;99389.34;5053207;28;20068;-63
2021/07/25 02:12:09;;;;;;;9.30;6.47;;;;;;;15.41;56.00;99395.19;5053487;28;20060;-62
2021/07/25 02:14:36;;;;;;;9.85;6.18;;;;;;;15.39;55.63;99394.69;5053279;28;20037;-62
2021/07/25 02:17:03;;;;;;;9.48;6.15;;;;;;;15.41;56.25;99390.69;5052908;28;20083;-61
2021/07/25 02:19:29;;;;;;;8.43;6.07;;;;;;;15.42;55.79;99394.16;5053398;28;20059;-61
2021/07/25 02:21:55;;;;;;;10.40;5.75;;;;;;;15.44;55.60;99392.00;5053455;28;20530;-61
2021/07/25 02:24:21;;;;;;;10.35;6.68;;;;;;;15.47;55.99;99402.16;5053107;28;20037;-61
2021/07/25 02:26:48;;;;;;;8.43;6.70;;;;;;;15.51;55.73;99402.44;5053266;28;20045;-63
2021/07/25 02:29:14;;;;;;;13.00;7.10;;;;;;;15.53;56.35;99403.75;5053299;28;20463;-63
2021/07/25 02:31:40;;;;;;;9.00;6.43;;;;;;;15.53;55.97;99406.44;5053188;28;20049;-62
2021/07/25 02:34:06;;;;;;;10.95;7.15;;;;;;;15.57;56.55;99402.16;5051258;28;20106;-63
2021/07/25 02:36:32;;;;;;;10.02;6.85;;;;;;;15.60;56.35;99411.50;5052870;28;20409;-62
2021/07/25 02:38:58;;;;;;;10.63;6.65;;;;;;;15.68;56.28;99416.31;5051825;28;20033;-63
2021/07/25 02:41:23;;;;;;;9.63;6.57;;;;;;;15.73;55.71;99413.63;5052897;28;20048;-64
2021/07/25 02:43:49;;;;;;;11.25;6.93;;;;;;;15.77;56.34;99414.69;5052893;28;20127;-64
2021/07/25 02:46:15;;;;;;;10.57;6.47;;;;;;;15.83;55.89;99424.31;5052778;28;20045;-62
2021/07/25 02:48:40;;;;;;;9.98;6.32;;;;;;;15.85;55.89;99424.84;5051246;28;20041;-62
2021/07/25 02:51:07;;;;;;;12.65;6.82;;;;;;;15.90;55.79;99427.47;5052620;28;20060;-63
2021/07/25 02:53:32;;;;;;;9.20;6.25;;;;;;;16.00;55.24;99439.22;5052741;28;20063;-63
2021/07/25 02:55:58;;;;;;;11.07;6.28;;;;;;;16.02;55.56;99427.19;5052721;28;20052;-62
2021/07/25 02:58:24;;;;;;;10.60;6.03;;;;;;;16.06;55.59;99432.78;5052616;28;20098;-64
2021/07/25 03:00:49;;;;;;;11.45;6.38;;;;;;;16.04;55.05;99433.06;5052368;28;20415;-62
2021/07/25 03:03:15;;;;;;;9.05;6.07;;;;;;;16.17;55.74;99436.22;5052290;28;20045;-64
2021/07/25 03:05:41;;;;;;;10.73;6.10;;;;;;;16.26;54.92;99435.38;5052131;28;20069;-62
2021/07/25 03:08:07;;;;;;;9.45;5.90;;;;;;;16.36;54.97;99437.25;5052119;28;20044;-64
2021/07/25 03:10:32;;;;;;;11.85;6.28;;;;;;;16.45;54.68;99443.63;5050833;28;20045;-62
2021/07/25 03:12:58;;;;;;;9.65;6.50;;;;;;;16.51;54.65;99442.53;5052100;28;20522;-62
2021/07/25 03:15:24;;;;;;;8.25;6.30;;;;;;;16.53;54.90;99448.41;5051929;28;20048;-62
2021/07/25 03:17:52;;;;;;;10.30;6.45;;;;;;;16.55;56.61;99435.53;5052373;28;20281;-62
2021/07/25 03:20:18;;;;;;;13.60;7.93;;;;;;;16.69;58.30;99442.97;5052109;28;20045;-61
2021/07/25 03:22:44;;;;;;;12.90;8.38;;;;;;;16.71;58.57;99452.31;5051855;28;20083;-63
2021/07/25 03:25:11;;;;;;;10.98;8.77;;;;;;;16.77;58.91;99453.94;5051914;28;20048;-62
2021/07/25 03:27:37;;;;;;;14.50;9.02;;;;;;;16.79;58.65;99448.28;5051819;28;20512;-61
2021/07/25 03:30:04;;;;;;;15.18;7.75;;;;;;;16.86;58.27;99456.03;5050793;28;20087;-62
2021/07/25 03:32:30;;;;;;;11.10;7.55;;;;;;;16.87;57.07;99449.59;5051769;28;20128;-62
2021/07/25 03:34:55;;;;;;;12.20;7.93;;;;;;;16.92;56.75;99447.69;5051802;28;20069;-62
2021/07/25 03:37:22;;;;;;;12.57;7.25;;;;;;;17.02;56.63;99455.63;5052048;28;20045;-61
2021/07/25 03:39:51;;;;;;;11.07;6.95;;;;;;;17.13;56.12;99447.53;5052198;28;20041;-62
2021/07/25 03:42:17;;;;;;;9.57;7.10;;;;;;;17.28;56.15;99465.38;5052053;28;20041;-62
2021/07/25 03:44:43;;;;;;;8.80;6.75;;;;;;;17.45;55.61;99471.16;5051564;28;20037;-62
2021/07/25 03:47:10;;;;;;;10.55;6.57;;;;;;;17.58;54.30;99465.13;5051972;28;20052;-62
2021/07/25 03:49:41;;;;;;;9.02;6.43;;;;;;;17.71;51.98;99452.97;5050546;28;20045;-62
2021/07/25 03:52:08;;;;;;;13.90;6.78;;;;;;;17.84;50.64;99459.56;5051669;28;20575;-63
2021/07/25 03:54:36;;;;;;;9.07;6.80;;;;;;;17.96;49.61;99464.53;5050260;28;20037;-63
2021/07/25 03:57:02;;;;;;;7.97;6.30;;;;;;;18.09;49.29;99464.69;5051724;28;20476;-62
2021/07/25 03:59:27;;;;;;;8.18;6.15;;;;;;;18.21;48.56;99464.28;5051812;28;20045;-63
2021/07/25 04:01:53;;;;;;;9.23;6.22;;;;;;;18.28;48.31;99462.03;5051437;28;20521;-63
2021/07/25 04:04:19;;;;;;;10.82;6.68;;;;;;;18.38;48.50;99467.28;5051256;28;20056;-62
2021/07/25 04:06:45;;;;;;;10.13;6.57;;;;;;;18.45;47.86;99475.00;5050056;28;20303;-62
2021/07/25 04:09:10;;;;;;;10.02;6.32;;;;;;;18.53;48.29;99468.16;5051279;28;20033;-63
2021/07/25 04:11:36;;;;;;;7.38;5.78;;;;;;;18.68;47.62;99467.16;5051679;28;20537;-63
2021/07/25 04:14:02;;;;;;;11.07;7.07;;;;;;;18.87;47.40;99473.41;5051200;28;20138;-62
2021/07/25 04:16:28;;;;;;;8.00;5.82;;;;;;;18.97;47.55;99469.75;5050912;28;20057;-62
2021/07/25 04:18:53;;;;;;;10.50;5.88;;;;;;;19.03;47.23;99469.41;5051471;28;20498;-63
2021/07/25 04:21:19;;;;;;;10.68;5.65;;;;;;;19.16;46.94;99475.16;5051014;28;20546;-62
2021/07/25 04:23:45;;;;;;;7.78;5.72;;;;;;;19.19;46.55;99482.63;5051141;28;20044;-62
2021/07/25 04:26:11;;;;;;;8.32;5.72;;;;;;;19.23;46.96;99475.56;5051202;28;20457;-62
2021/07/25 04:28:38;;;;;;;6.40;5.15;;;;;;;19.27;46.66;99474.69;5051030;28;20128;-63
2021/07/25 04:31:04;;;;;;;8.38;5.28;;;;;;;19.33;46.17;99474.63;5051306;28;20102;-62
2021/07/25 04:33:32;;;;;;;10.32;5.40;;;;;;;19.41;46.51;99482.00;5050997;28;20457;-64
2021/07/25 04:35:58;;;;;;;8.80;5.45;;;;;;;19.40;47.14;99486.59;5051141;28;20051;-62
2021/07/25 04:38:24;;;;;;;9.35;5.32;;;;;;;19.47;46.37;99483.50;5050030;28;20045;-63
2021/07/25 04:40:59;;;;;;;8.57;5.00;;;;;;;19.61;46.19;99488.94;5051239;28;20120;-61
2021/07/25 04:43:28;;;;;;;8.02;5.22;;;;;;;19.76;46.17;99490.59;5050049;28;20041;-62
2021/07/25 04:46:11;;;;;;;6.78;4.90;;;;;;;19.90;45.70;99484.16;5049874;28;20391;-62
2021/07/25 04:48:50;;;;;;;8.48;5.00;;;;;;;20.15;45.31;99492.88;5033410;28;20049;-61
2021/07/25 04:51:18;;;;;;;8.07;5.03;;;;;;;20.28;44.78;99493.97;5050982;28;20045;-61
2021/07/25 04:53:44;;;;;;;7.50;4.47;;;;;;;20.45;44.38;99496.06;5051061;28;20068;-61
2021/07/25 04:56:12;;;;;;;13.68;4.90;;;;;;;20.56;44.05;99500.97;5049507;28;20045;-61
2021/07/25 04:58:43;;;;;;;6.05;4.57;;;;;;;20.56;43.92;99494.75;5049483;28;20049;-62
2021/07/25 05:01:14;;;;;;;8.20;4.45;;;;;;;20.55;44.65;99493.97;5049689;28;20045;-61
2021/07/25 05:03:41;;;;;;;6.05;4.47;;;;;;;20.69;44.44;99495.88;5053461;28;20044;-62
2021/07/25 05:06:12;;;;;;;6.72;4.10;;;;;;;20.85;44.16;99502.50;5054835;28;20127;-62
2021/07/25 05:08:39;;;;;;;7.63;4.65;;;;;;;20.72;44.05;99496.06;5054183;28;20203;-62
2021/07/25 05:11:21;;;;;;;6.05;4.28;;;;;;;20.74;44.38;99499.25;5054681;28;20071;-63
2021/07/25 05:13:49;;;;;;;6.85;4.50;;;;;;;20.68;44.63;99497.75;5054664;28;20068;-63
2021/07/25 05:16:27;;;;;;;6.03;4.30;;;;;;;20.73;44.28;99494.94;5054148;28;20435;-62
2021/07/25 05:19:11;;;;;;;5.72;3.80;;;;;;;20.69;44.40;99490.47;5054367;28;20128;-62
2021/07/25 05:21:50;;;;;;;7.57;4.35;;;;;;;20.80;44.37;99491.88;5053069;28;20136;-63
2021/07/25 05:24:17;;;;;;;5.57;4.03;;;;;;;20.89;44.72;99498.13;5053355;28;20074;-62
2021/07/25 05:26:46;;;;;;;6.93;4.05;;;;;;;21.01;44.04;99492.19;5054477;28;20144;-62
2021/07/25 05:29:12;;;;;;;4.43;3.47;;;;;;;21.17;43.26;99488.03;5054212;28;20134;-62
2021/07/25 05:31:39;;;;;;;6.28;3.42;;;;;;;21.19;42.40;99501.22;5052895;28;20490;-62
2021/07/25 05:34:04;;;;;;;3.60;2.97;;;;;;;21.38;41.47;99496.47;5054045;28;20053;-63
2021/07/25 05:36:30;;;;;;;4.53;2.83;;;;;;;21.54;41.36;99491.53;5054115;28;20047;-62
2021/07/25 05:38:56;;;;;;;2.90;2.60;;;;;;;21.62;40.88;99490.78;5053941;28;20080;-62
2021/07/25 05:41:22;;;;;;;4.78;2.90;;;;;;;21.74;41.53;99493.72;5054029;28;20518;-62
2021/07/25 05:43:48;;;;;;;4.30;2.92;;;;;;;21.82;40.70;99491.38;5053828;28;20044;-63
2021/07/25 05:46:14;;;;;;;4.18;2.70;;;;;;;21.95;39.96;99493.97;5053913;28;20055;-62
2021/07/25 05:48:39;;;;;;;5.93;2.97;;;;;;;22.04;39.57;99496.72;5053769;28;20114;-63
2021/07/25 05:51:05;;;;;;;5.03;2.80;;;;;;;22.04;39.84;99498.63;5053932;28;20068;-62
2021/07/25 05:53:32;;;;;;;4.30;3.00;;;;;;;21.94;40.27;99500.50;5053613;28;20091;-63
2021/07/25 05:55:58;;;;;;;5.00;3.25;;;;;;;21.97;40.93;99497.19;5053701;28;20053;-63
2021/07/25 05:58:24;;;;;;;5.35;2.90;;;;;;;22.04;41.11;99507.53;5053593;28;20029;-63
2021/07/25 06:00:52;;;;;;;4.95;2.80;;;;;;;22.13;41.03;99504.84;5053598;28;20410;-61
2021/07/25 06:03:17;;;;;;;3.75;2.70;;;;;;;22.08;40.33;99502.28;5053480;28;20083;-63
2021/07/25 06:05:43;;;;;;;3.50;2.50;;;;;;;21.94;40.49;99505.91;5053636;28;20072;-61
2021/07/25 06:08:09;;;;;;;6.40;3.08;;;;;;;22.06;40.54;99507.19;5053444;28;20049;-63
2021/07/25 06:10:40;;;;;;;4.38;2.50;;;;;;;22.18;40.38;99515.56;5053633;28;20230;-62
2021/07/25 06:13:06;;;;;;;6.47;3.00;;;;;;;22.30;40.88;99515.75;5051992;28;20029;-63
2021/07/25 06:15:33;;;;;;;3.55;2.83;;;;;;;22.43;40.13;99512.13;5053081;28;20529;-63
2021/07/25 06:18:03;;;;;;;5.78;3.20;;;;;;;22.60;39.71;99521.41;5053162;28;20041;-63
2021/07/25 06:20:32;;;;;;;3.05;2.47;;;;;;;22.81;39.18;99516.22;5051883;28;20080;-62
2021/07/25 06:22:59;;;;;;;3.80;2.63;;;;;;;22.97;38.79;99520.09;5053116;28;20053;-62
2021/07/25 06:25:27;;;;;;;3.45;2.70;;;;;;;23.08;38.53;99518.66;5053035;28;20313;-62
2021/07/25 06:27:56;;;;;;;4.97;2.97;;;;;;;23.15;38.80;99520.91;5051763;28;20044;-62
2021/07/25 06:30:23;;;;;;;5.57;2.63;;;;;;;23.21;38.37;99516.91;5053036;28;20053;-62
2021/07/25 06:33:05;;;;;;;2.83;2.20;;;;;;;23.20;38.74;99523.44;5053019;28;20254;-62
2021/07/25 06:35:33;;;;;;;4.03;2.33;;;;;;;23.13;38.68;99520.41;5052956;28;20041;-61
2021/07/25 06:38:01;;;;;;;4.13;2.10;;;;;;;23.13;37.94;99523.13;5052705;28;20048;-62
2021/07/25 06:40:28;;;;;;;3.63;1.95;;;;;;;23.19;38.40;99524.56;5051469;28;20095;-62
2021/07/25 06:42:55;;;;;;;2.33;2.05;;;;;;;23.18;38.01;99517.56;5052868;28;20406;-61
2021/07/25 06:45:21;;;;;;;2.33;1.90;;;;;;;23.09;39.17;99522.97;5052665;28;20037;-63
2021/07/25 06:47:51;;;;;;;3.13;2.03;;;;;;;23.18;37.39;99527.56;5052533;28;20089;-63
2021/07/25 06:50:18;;;;;;;5.57;1.93;;;;;;;23.24;38.02;99529.00;5052440;28;20044;-62
2021/07/25 06:52:43;;;;;;;3.90;2.05;;;;;;;23.33;36.99;99536.00;5052714;28;20052;-62
2021/07/25 06:55:09;;;;;;;2.88;2.00;;;;;;;23.44;36.76;99520.25;5052704;28;20047;-62
2021/07/25 06:57:35;;;;;;;2.72;1.98;;;;;;;23.61;36.09;99522.13;5051402;28;20041;-61
2021/07/25 07:00:03;;;;;;;4.28;1.90;;;;;;;23.78;35.55;99529.47;5052987;28;20040;-61
2021/07/25 07:02:44;;;;;;;1.60;1.50;;;;;;;23.62;34.39;99529.16;5052306;28;20045;-62
2021/07/25 07:05:10;;;;;;;2.83;1.58;;;;;;;23.47;34.89;99530.44;5052543;28;20037;-62
2021/07/25 07:07:36;;;;;;;2.42;1.60;;;;;;;23.49;34.99;99528.19;5052485;28;20051;-62
2021/07/25 07:10:02;;;;;;;2.75;1.63;;;;;;;23.51;35.82;99533.28;5052192;28;20036;-62
2021/07/25 07:12:28;;;;;;;4.07;1.75;;;;;;;23.47;36.22;99540.44;5052042;28;20090;-63
2021/07/25 07:14:54;;;;;;;6.35;1.90;;;;;;;23.40;36.32;99540.94;5050802;28;20044;-63
2021/07/25 07:17:22;;;;;;;1.80;1.50;;;;;;;23.28;36.25;99543.47;5051762;28;20581;-61
2021/07/25 07:19:48;;;;;;;1.75;1.60;;;;;;;23.23;37.26;99539.00;5051959;28;20059;-61
2021/07/25 07:22:26;;;;;;;3.65;1.80;;;;;;;23.11;37.70;99545.06;5052274;28;20516;-62
2021/07/25 07:24:53;;;;;;;1.92;1.63;;;;;;;22.86;37.22;99543.09;5051524;28;20057;-63
2021/07/25 07:27:19;;;;;;;4.35;1.92;;;;;;;22.73;37.93;99547.50;5052149;28;20069;-62
2021/07/25 07:29:45;;;;;;;4.03;1.92;;;;;;;22.67;37.88;99537.94;5034101;28;20056;-64
2021/07/25 07:32:10;;;;;;;2.10;1.80;;;;;;;22.85;37.14;99542.31;5033925;28;20048;-63
2021/07/25 07:34:36;;;;;;;3.17;1.52;;;;;;;22.91;37.37;99551.03;5051920;28;20127;-63
2021/07/25 07:37:02;;;;;;;2.30;1.40;;;;;;;22.86;34.01;99549.28;5051946;28;20453;-63
2021/07/25 07:39:28;;;;;;;1.35;1.25;;;;;;;22.80;33.44;99531.63;5051622;28;20033;-64
2021/07/25 07:41:54;;;;;;;1.88;1.52;;;;;;;22.75;34.20;99547.19;5051838;28;20049;-62
2021/07/25 07:44:20;;;;;;;3.05;2.08;;;;;;;22.73;34.73;99539.41;5051505;28;20052;-63
2021/07/25 07:46:46;;;;;;;2.28;2.08;;;;;;;22.78;35.33;99539.25;5051664;28;20048;-63
2021/07/25 07:49:12;;;;;;;2.00;1.77;;;;;;;22.74;35.64;99537.50;5051673;28;20119;-63
2021/07/25 07:51:37;;;;;;;2.08;1.70;;;;;;;22.81;35.21;99537.84;5051597;28;20402;-62
2021/07/25 07:54:03;;;;;;;4.22;2.40;;;;;;;22.93;35.51;99534.50;5051699;28;20044;-63
2021/07/25 07:56:31;;;;;;;2.00;1.70;;;;;;;22.94;35.43;99541.50;5051334;28;20095;-62
2021/07/25 07:58:57;;;;;;;2.53;1.27;;;;;;;22.96;35.72;99537.41;5050139;28;20041;-63
2021/07/25 08:01:24;;;;;;;2.33;1.88;;;;;;;22.81;35.65;99527.81;5033626;28;20071;-62
2021/07/25 08:03:50;;;;;;;1.60;1.50;;;;;;;22.89;35.52;99532.44;5050295;28;20045;-62
2021/07/25 08:06:15;;;;;;;2.78;1.90;;;;;;;22.91;35.72;99532.13;5051458;28;20486;-62
2021/07/25 08:08:41;;;;;;;2.40;1.80;;;;;;;23.00;35.33;99532.16;5051274;28;20048;-62
2021/07/25 08:11:07;;;;;;;2.40;1.80;;;;;;;23.10;35.12;99535.34;5049852;28;20052;-62
2021/07/25 08:13:33;;;;;;;2.10;1.90;;;;;;;23.12;35.39;99535.84;5051144;28;20053;-61
2021/07/25 08:15:58;;;;;;;3.83;1.92;;;;;;;23.09;34.10;99536.47;5050896;28;20056;-62
2021/07/25 08:18:24;;;;;;;2.53;1.60;;;;;;;23.06;34.63;99523.59;5049948;28;20044;-62
2021/07/25 08:20:50;;;;;;;4.60;3.05;;;;;;;22.92;35.10;99530.22;5033295;28;20632;-62
2021/07/25 08:23:16;;;;;;;2.30;2.08;;;;;;;22.78;35.62;99541.97;5050182;28;20399;-65
2021/07/25 08:25:42;;;;;;;2.42;1.90;;;;;;;22.69;36.25;99535.75;5051178;28;20145;-61
2021/07/25 08:28:07;;;;;;;2.53;1.85;;;;;;;22.60;35.81;99541.13;5050919;28;20410;-63
2021/07/25 08:30:33;;;;;;;2.00;1.60;;;;;;;22.50;36.61;99543.31;5050987;28;20044;-62
2021/07/25 08:32:59;;;;;;;3.42;2.10;;;;;;;22.40;36.94;99544.38;5051307;28;20486;-62
2021/07/25 08:35:25;;;;;;;3.95;2.35;;;;;;;22.34;37.67;99546.44;5050774;28;20048;-63
2021/07/25 08:37:52;;;;;;;4.82;2.10;;;;;;;22.21;37.57;99533.84;5052307;28;20053;-61
2021/07/25 08:40:20;;;;;;;6.57;2.00;;;;;;;22.18;37.69;99543.34;5055334;28;20072;-61
2021/07/25 08:43:11;;;;;;;2.47;2.20;;;;;;;22.25;37.71;99552.91;5055167;28;20041;-61
2021/07/25 08:45:39;;;;;;;3.75;2.20;;;;;;;22.31;37.89;99546.25;5055183;28;20402;-62
2021/07/25 08:48:12;;;;;;;2.90;1.92;;;;;;;22.44;37.49;99548.88;5053397;28;20099;-62
2021/07/25 08:50:45;;;;;;;2.28;1.90;;;;;;;22.60;37.73;99554.63;5053349;28;20041;-62
2021/07/25 08:53:15;;;;;;;3.13;2.38;;;;;;;22.70;37.50;99556.22;5053489;28;20099;-62
2021/07/25 08:55:42;;;;;;;6.05;2.40;;;;;;;22.76;37.49;99552.28;5053365;28;20052;-62
2021/07/25 08:58:10;;;;;;;3.53;2.63;;;;;;;22.98;37.37;99550.63;5054815;28;20045;-62
2021/07/25 09:00:37;;;;;;;4.53;2.63;;;;;;;23.06;36.59;99557.91;5054799;28;20048;-61
2021/07/25 09:03:08;;;;;;;5.20;2.63;;;;;;;23.11;37.25;99557.78;5020444;28;20139;-62
2021/07/25 09:05:34;;;;;;;4.95;2.63;;;;;;;23.16;37.13;99562.25;5054589;28;20068;-61
2021/07/25 09:08:05;;;;;;;4.13;2.92;;;;;;;23.17;36.90;99567.31;5054467;28;20490;-61
2021/07/25 09:10:31;;;;;;;2.80;2.17;;;;;;;23.15;36.95;99566.03;5054791;28;20079;-62
2021/07/25 09:12:58;;;;;;;3.83;2.70;;;;;;;23.12;37.24;99562.09;5053380;28;20037;-61
2021/07/25 09:15:31;;;;;;;5.00;2.10;;;;;;;23.16;37.31;99556.84;5054280;28;20469;-61
2021/07/25 09:17:58;;;;;;;6.45;2.15;;;;;;;23.26;37.10;99561.94;5019948;28;20452;-61
2021/07/25 09:20:28;;;;;;;3.53;2.22;;;;;;;23.28;36.95;99576.72;5054491;28;20045;-61
2021/07/25 09:22:57;;;;;;;2.60;1.83;;;;;;;23.13;35.87;99567.16;5054138;28;20502;-62
2021/07/25 09:25:27;;;;;;;3.88;1.80;;;;;;;23.03;35.67;99572.06;5053953;28;20086;-62
2021/07/25 09:27:59;;;;;;;2.28;2.00;;;;;;;22.87;35.41;99572.50;5054519;28;20041;-62
2021/07/25 09:30:27;;;;;;;5.00;2.03;;;;;;;22.67;35.66;99573.88;5054049;28;20553;-63
2021/07/25 09:32:53;;;;;;;2.85;1.90;;;;;;;22.54;36.30;99577.50;5052791;28;20049;-62
2021/07/25 09:35:24;;;;;;;4.50;1.85;;;;;;;22.40;36.43;99576.78;5054162;28;20099;-63
2021/07/25 09:37:51;;;;;;;3.72;1.88;;;;;;;22.30;37.14;99571.69;5052539;28;20037;-63
2021/07/25 09:40:27;;;;;;;3.80;2.22;;;;;;;22.07;37.93;99577.09;5053852;28;20481;-62
2021/07/25 09:43:25;;;;;;;5.63;2.13;;;;;;;22.07;38.29;99571.69;5053901;28;20041;-62
2021/07/25 09:45:54;;;;;;;3.20;2.72;;;;;;;22.05;38.06;99568.47;5054061;28;20067;-64
2021/07/25 09:48:24;;;;;;;3.25;2.22;;;;;;;22.07;38.08;99574.38;5053519;28;20079;-63
2021/07/25 09:50:50;;;;;;;3.50;2.58;;;;;;;22.14;38.19;99576.63;5053773;28;20041;-63
2021/07/25 09:53:17;;;;;;;4.50;3.58;;;;;;;22.24;38.31;99576.41;5053583;28;20498;-63
2021/07/25 09:55:43;;;;;;;3.67;2.53;;;;;;;22.28;37.80;99577.38;5052323;28;20518;-61
2021/07/25 09:58:09;;;;;;;2.70;2.45;;;;;;;22.31;37.98;99576.75;5035691;28;20418;-63
2021/07/25 10:00:38;;;;;;;4.05;3.17;;;;;;;22.36;38.27;99587.44;5053498;28;20045;-63
2021/07/25 10:03:23;;;;;;;5.32;3.40;;;;;;;22.42;38.28;99586.19;5053441;28;20128;-63
2021/07/25 10:05:53;;;;;;;4.63;2.50;;;;;;;22.54;38.13;99576.69;5052000;28;20629;-62
2021/07/25 10:08:23;;;;;;;4.63;2.40;;;;;;;22.63;37.78;99581.00;5052439;28;20049;-62
2021/07/25 10:10:51;;;;;;;2.38;2.00;;;;;;;22.77;37.26;99580.13;5052150;28;20049;-64
2021/07/25 10:13:18;;;;;;;4.10;2.92;;;;;;;22.95;36.89;99586.41;5053256;28;20041;-63
2021/07/25 10:15:57;;;;;;;19.90;15.70;;;;;;;23.09;37.17;99589.75;5052909;28;20095;-63
2021/07/25 10:18:24;;;;;;;5.97;2.50;;;;;;;23.31;36.34;99595.03;5035434;28;20045;-61
2021/07/25 10:20:59;;;;;;;4.13;3.00;;;;;;;23.42;36.67;99589.31;5051667;28;20040;-62
2021/07/25 10:23:35;;;;;;;3.05;2.20;;;;;;;23.52;36.33;99588.97;5053110;28;20095;-63
2021/07/25 10:26:02;;;;;;;2.85;1.92;;;;;;;23.62;36.44;99588.69;5051823;28;20053;-61
2021/07/25 10:28:31;;;;;;;2.60;2.10;;;;;;;23.61;36.07;99588.97;5035017;28;20037;-63
2021/07/25 10:30:58;;;;;;;2.00;1.80;;;;;;;23.93;36.27;99587.72;5053082;28;20053;-62
2021/07/25 10:33:26;;;;;;;3.80;2.00;;;;;;;24.20;36.29;99578.41;5053021;28;20037;-63
2021/07/25 10:35:53;;;;;;;3.67;2.22;;;;;;;23.89;36.26;99586.78;5052699;28;20083;-62
2021/07/25 10:38:18;;;;;;;3.38;2.08;;;;;;;23.91;35.39;99587.22;5051412;28;20049;-63
2021/07/25 10:40:45;;;;;;;1.88;1.52;;;;;;;23.98;34.19;99588.34;5052283;28;20099;-63
2021/07/25 10:43:13;;;;;;;4.80;1.60;;;;;;;24.16;34.10;99580.97;5051553;28;20064;-62
2021/07/25 10:45:39;;;;;;;1.88;1.60;;;;;;;24.10;34.28;99590.38;5051401;28;20045;-63
2021/07/25 10:48:13;;;;;;;1.67;1.55;;;;;;;24.25;33.77;99591.78;5051174;28;20040;-63
2021/07/25 10:50:39;;;;;;;2.33;1.50;;;;;;;24.29;33.50;99584.56;5052252;28;20056;-64
2021/07/25 10:53:05;;;;;;;1.80;1.60;;;;;;;24.18;34.23;99591.50;5034778;28;20037;-62
2021/07/25 10:55:42;;;;;;;3.42;1.58;;;;;;;24.13;33.79;99584.31;5052276;28;20049;-63
2021/07/25 10:58:12;;;;;;;3.00;1.52;;;;;;;24.24;33.31;99590.97;5052575;28;20424;-63
2021/07/25 11:00:40;;;;;;;1.95;1.55;;;;;;;24.29;33.53;99581.88;5050330;28;20045;-62
2021/07/25 11:03:06;;;;;;;2.45;1.65;;;;;;;24.35;33.50;99586.00;5052299;28;20059;-62
2021/07/25 11:05:31;;;;;;;1.92;1.30;;;;;;;24.30;33.32;99586.19;5052222;28;20434;-62
2021/07/25 11:07:59;;;;;;;3.33;1.77;;;;;;;24.19;33.58;99584.94;5050953;28;20041;-61
2021/07/25 11:10:33;;;;;;;2.90;1.90;;;;;;;23.99;34.17;99589.13;5052097;28;20049;-63
2021/07/25 11:13:19;;;;;;;2.08;1.55;;;;;;;23.78;34.65;99586.28;5050776;28;20460;-60
2021/07/25 11:15:46;;;;;;;2.38;1.90;;;;;;;23.57;34.90;99589.63;5051412;28;20061;-62
2021/07/25 11:18:34;;;;;;;2.10;1.70;;;;;;;23.56;35.06;99588.03;5050776;28;20087;-62
2021/07/25 11:21:01;;;;;;;4.03;1.75;;;;;;;23.43;35.11;99586.28;5050669;28;20049;-63
2021/07/25 11:23:33;;;;;;;2.85;1.60;;;;;;;23.44;35.43;99582.47;5051916;28;20048;-62
2021/07/25 11:26:33;;;;;;;2.28;1.70;;;;;;;23.55;34.67;99583.72;5052256;28;20045;-62
2021/07/25 11:29:00;;;;;;;2.88;1.70;;;;;;;23.66;34.48;99581.50;5052074;28;20391;-62
2021/07/25 11:31:46;;;;;;;2.15;1.80;;;;;;;23.74;34.60;99588.06;5050613;28;20532;-62
2021/07/25 11:34:29;;;;;;;9.90;3.50;;;;;;;23.78;34.68;99570.84;5050376;28;20037;-64
2021/07/25 11:36:56;;;;;;;2.50;2.05;;;;;;;23.83;34.66;99582.66;5034799;28;20127;-62